Time;durP1;ratioP1;P1;durP2;ratioP2;P2;SDS_P1;SDS_P2;PMS_P1;PMS_P2;Temp;Humidity;BMP_temperature;BMP_pressure;BME280_temperature;BME280_humidity;BME280_pressure;Samples;Min_cycle;Max_cycle;Signal;HPM_P1;HPM_P2
2022/06/27 00:01:14;;;;;;;5.60;4.00;;;;;;;17.24;80.11;101267.35;107202;1250;71651;-71
2022/06/27 00:03:43;;;;;;;5.20;3.90;;;;;;;17.19;81.08;101269.61;107192;1250;71470;-71
2022/06/27 00:06:12;;;;;;;5.80;3.60;;;;;;;17.13;79.37;101269.45;107123;1251;72696;-71
2022/06/27 00:08:41;;;;;;;5.80;4.00;;;;;;;17.04;81.59;101266.24;107190;1250;62973;-72
2022/06/27 00:11:10;;;;;;;5.10;3.50;;;;;;;16.98;82.31;101264.51;107174;1250;61624;-75
2022/06/27 00:13:39;;;;;;;5.30;3.60;;;;;;;16.96;82.23;101261.15;107215;1250;73296;-75
2022/06/27 00:16:08;;;;;;;4.90;3.90;;;;;;;16.96;81.86;101265.02;107105;1251;70022;-73
2022/06/27 00:18:57;;;;;;;6.10;3.80;;;;;;;16.95;82.51;101266.69;107070;1251;69058;-73
2022/06/27 00:21:26;;;;;;;6.60;3.60;;;;;;;16.94;82.54;101270.46;107116;1251;72072;-71
2022/06/27 00:23:56;;;;;;;4.60;3.70;;;;;;;16.95;82.14;101269.14;107141;1251;62991;-71
2022/06/27 00:26:25;;;;;;;5.30;3.90;;;;;;;16.97;82.13;101273.90;107182;1250;61070;-70
2022/06/27 00:28:54;;;;;;;4.50;3.70;;;;;;;16.96;81.94;101271.31;106985;1251;72187;-73
2022/06/27 00:31:23;;;;;;;5.60;3.90;;;;;;;16.94;81.89;101269.05;107119;1251;72153;-71
2022/06/27 00:33:52;;;;;;;9.20;4.10;;;;;;;16.93;82.07;101266.16;107018;1250;69055;-71
2022/06/27 00:36:21;;;;;;;4.90;3.70;;;;;;;16.91;82.22;101264.59;107007;1251;71989;-71
2022/06/27 00:38:50;;;;;;;5.80;4.70;;;;;;;16.87;82.59;101270.86;107095;1251;60558;-72
2022/06/27 00:41:19;;;;;;;7.30;4.10;;;;;;;16.86;83.27;101266.11;107146;1250;60118;-71
2022/06/27 00:43:48;;;;;;;6.00;4.10;;;;;;;16.80;83.19;101262.05;107053;1251;72537;-73
2022/06/27 00:46:17;;;;;;;5.20;4.30;;;;;;;16.70;83.27;101258.92;107036;1251;70482;-70
2022/06/27 00:48:46;;;;;;;5.90;3.80;;;;;;;16.70;83.38;101259.93;107010;1251;68716;-71
2022/06/27 00:51:15;;;;;;;7.00;3.90;;;;;;;16.70;83.13;101265.91;107135;1251;72225;-71
2022/06/27 00:53:45;;;;;;;5.90;3.90;;;;;;;16.67;82.85;101268.41;107161;1250;62213;-71
2022/06/27 00:56:14;;;;;;;5.20;3.80;;;;;;;16.63;82.78;101268.48;107145;1251;61208;-71
2022/06/27 00:58:42;;;;;;;5.10;4.00;;;;;;;16.60;83.11;101267.13;107139;1251;74610;-71
2022/06/27 01:01:11;;;;;;;6.80;4.00;;;;;;;16.62;83.65;101267.11;107160;1251;72285;-71
2022/06/27 01:03:41;;;;;;;5.10;3.90;;;;;;;16.63;83.33;101268.83;107106;1251;71389;-72
2022/06/27 01:06:10;;;;;;;5.70;4.10;;;;;;;16.59;83.15;101278.67;107099;1250;73868;-72
2022/06/27 01:08:39;;;;;;;5.40;4.50;;;;;;;16.45;83.12;101278.81;107309;1250;61602;-74
2022/06/27 01:11:08;;;;;;;5.20;3.60;;;;;;;16.36;83.56;101277.65;107156;1251;59863;-72
2022/06/27 01:13:37;;;;;;;7.20;4.30;;;;;;;16.38;83.52;101273.52;107661;1249;72051;-72
2022/06/27 01:16:06;;;;;;;7.10;4.20;;;;;;;16.38;83.76;101271.41;107404;1251;70793;-73
2022/06/27 01:18:35;;;;;;;5.20;4.30;;;;;;;16.36;83.07;101270.86;107373;1251;67956;-74
2022/06/27 01:21:06;;;;;;;5.70;4.20;;;;;;;16.30;83.58;101269.27;107481;1249;71670;-73
2022/06/27 01:23:36;;;;;;;5.50;4.50;;;;;;;16.25;82.21;101271.61;107468;1251;60357;-74
2022/06/27 01:26:05;;;;;;;6.20;4.40;;;;;;;16.19;82.43;101273.22;107592;1250;58852;-71
2022/06/27 01:28:34;;;;;;;8.10;4.90;;;;;;;16.12;84.85;101272.55;108409;1250;71650;-69
2022/06/27 01:31:03;;;;;;;7.60;4.80;;;;;;;16.10;85.93;101273.98;108427;1251;69740;-70
2022/06/27 01:33:33;;;;;;;6.20;4.60;;;;;;;16.11;85.82;101273.92;107928;1251;70886;-72
2022/06/27 01:38:55;;;;;;;8.30;4.90;;;;;;;16.14;85.97;101276.41;107425;1251;63301;-73
2022/06/27 01:41:24;;;;;;;7.30;4.90;;;;;;;16.18;85.91;101276.98;107084;1250;60070;-71
2022/06/27 01:43:53;;;;;;;6.90;4.80;;;;;;;16.23;85.83;101277.50;107445;1249;74749;-73
2022/06/27 01:46:22;;;;;;;6.40;4.80;;;;;;;16.24;85.48;101278.39;107541;1248;71295;-72
2022/06/27 01:48:51;;;;;;;7.60;5.20;;;;;;;16.25;85.38;101280.42;107540;1251;70231;-75
2022/06/27 01:51:20;;;;;;;9.20;5.40;;;;;;;16.25;83.51;101280.79;107444;1251;71787;-72
2022/06/27 01:53:51;;;;;;;5.80;4.40;;;;;;;16.21;84.00;101284.70;107213;1250;60581;-74
2022/06/27 01:56:21;;;;;;;6.60;5.10;;;;;;;16.12;84.38;101284.31;107339;1251;61681;-73
2022/06/27 01:58:52;;;;;;;6.60;5.10;;;;;;;16.05;85.71;101283.39;107216;1251;73049;-71
2022/06/27 02:01:21;;;;;;;5.60;4.40;;;;;;;16.03;85.86;101282.52;107406;1251;72621;-71
2022/06/27 02:03:51;;;;;;;6.30;4.50;;;;;;;16.01;86.04;101287.30;107551;1250;69071;-69
2022/06/27 02:06:21;;;;;;;9.50;4.80;;;;;;;15.98;85.60;101290.55;107394;1250;71767;-72
2022/06/27 02:08:53;;;;;;;8.90;4.90;;;;;;;15.92;85.65;101294.17;107355;1251;62538;-71
2022/06/27 02:11:22;;;;;;;7.00;4.80;;;;;;;15.91;85.70;101291.80;107438;1251;61791;-71
2022/06/27 02:13:55;;;;;;;6.70;5.10;;;;;;;15.94;85.89;101293.14;107561;1251;74203;-70
2022/06/27 02:16:24;;;;;;;9.20;5.00;;;;;;;15.97;85.03;101292.55;107286;1250;70705;-69
2022/06/27 02:18:54;;;;;;;7.40;4.70;;;;;;;15.95;83.57;101289.03;107145;1250;70778;-71
2022/06/27 02:21:26;;;;;;;6.20;4.70;;;;;;;15.86;84.81;101293.43;107201;1251;73595;-71
2022/06/27 02:23:57;;;;;;;8.20;4.70;;;;;;;15.80;85.96;101298.55;107325;1250;61009;-72
2022/06/27 02:26:30;;;;;;;6.10;4.80;;;;;;;15.74;85.84;101300.80;107171;1250;60488;-72
2022/06/27 02:29:00;;;;;;;6.50;4.50;;;;;;;15.76;85.96;101305.08;107146;1251;74084;-72
2022/06/27 02:31:31;;;;;;;6.60;4.70;;;;;;;15.79;85.80;101309.20;107098;1250;72600;-71
2022/06/27 02:34:00;;;;;;;6.30;4.80;;;;;;;15.81;85.71;101309.05;107318;1250;67934;-73
2022/06/27 02:36:46;;;;;;;6.10;5.00;;;;;;;15.85;85.77;101312.11;107232;1250;71161;-71
2022/06/27 02:39:24;;;;;;;8.40;5.20;;;;;;;15.88;85.90;101310.45;107115;1250;62245;-70
2022/06/27 02:41:58;;;;;;;6.40;5.10;;;;;;;15.88;85.31;101315.77;107296;1250;62736;-71
2022/06/27 02:44:28;;;;;;;8.50;5.40;;;;;;;15.84;85.12;101313.61;107139;1250;72117;-72
2022/06/27 02:47:00;;;;;;;5.40;4.40;;;;;;;15.82;85.06;101315.45;106823;1251;71961;-73
2022/06/27 02:49:29;;;;;;;6.60;5.10;;;;;;;15.79;85.06;101312.48;107136;1250;70741;-71
2022/06/27 02:52:09;;;;;;;8.20;5.30;;;;;;;15.78;85.34;101311.92;107110;1250;73481;-71
2022/06/27 02:55:15;;;;;;;7.60;6.40;;;;;;;15.79;85.25;101311.80;107377;1250;60927;-70
2022/06/27 02:58:05;;;;;;;13.70;6.20;;;;;;;15.80;84.67;101311.87;107219;1250;60626;-75
2022/06/27 03:00:38;;;;;;;10.00;6.70;;;;;;;15.83;84.23;101313.40;107241;1250;73338;-72
2022/06/27 03:03:13;;;;;;;9.40;6.50;;;;;;;15.83;84.53;101313.58;107208;1250;71830;-71
2022/06/27 03:06:07;;;;;;;9.80;5.90;;;;;;;15.88;84.92;101316.27;107141;1250;69711;-71
2022/06/27 03:08:47;;;;;;;10.00;6.60;;;;;;;15.95;85.18;101320.30;107019;1251;74219;-74
2022/06/27 03:11:19;;;;;;;8.40;6.20;;;;;;;16.02;84.97;101321.09;107100;1249;62519;-71
2022/06/27 03:13:50;;;;;;;8.00;6.00;;;;;;;16.09;84.80;101321.87;107179;1250;60869;-70
2022/06/27 03:16:21;;;;;;;7.50;6.30;;;;;;;16.16;84.30;101320.39;107598;1250;73468;-70
2022/06/27 03:18:53;;;;;;;7.20;6.30;;;;;;;16.24;84.25;101322.17;107490;1250;70687;-75
2022/06/27 03:21:41;;;;;;;8.00;6.10;;;;;;;16.32;84.02;101320.21;107135;1251;68236;-72
2022/06/27 03:24:10;;;;;;;7.30;6.10;;;;;;;16.38;83.53;101322.84;107110;1251;74477;-74
2022/06/27 03:26:42;;;;;;;11.90;6.10;;;;;;;16.44;83.13;101322.52;107304;1251;60928;-72
2022/06/27 03:29:11;;;;;;;8.50;6.20;;;;;;;16.49;83.11;101323.66;107355;1250;58582;-72
2022/06/27 03:31:42;;;;;;;10.20;7.10;;;;;;;16.55;83.05;101331.07;107334;1251;72966;-73
2022/06/27 03:34:12;;;;;;;8.40;6.60;;;;;;;16.61;82.99;101321.95;107260;1252;70328;-73
2022/06/27 03:36:48;;;;;;;17.70;6.80;;;;;;;16.66;82.64;101328.84;107552;1251;68664;-71
2022/06/27 03:39:17;;;;;;;10.40;6.80;;;;;;;16.73;82.77;101328.82;107364;1251;73047;-72
2022/06/27 03:41:46;;;;;;;8.20;6.50;;;;;;;16.84;82.35;101332.55;107437;1251;60943;-71
2022/06/27 03:44:15;;;;;;;9.80;6.60;;;;;;;16.94;81.56;101334.14;107607;1251;59597;-72
2022/06/27 03:46:48;;;;;;;8.20;6.40;;;;;;;17.03;81.41;101333.48;107567;1251;74449;-72
2022/06/27 03:52:16;;;;;;;9.00;6.90;;;;;;;17.04;81.33;101331.09;107578;1250;68127;-72
2022/06/27 03:54:46;;;;;;;8.40;6.80;;;;;;;17.03;81.77;101335.63;107355;1251;74310;-72
2022/06/27 03:57:16;;;;;;;10.30;7.00;;;;;;;17.09;81.40;101332.83;107779;1250;63307;-74
2022/06/27 03:59:44;;;;;;;10.00;7.30;;;;;;;17.18;81.17;101337.11;107539;1250;61535;-73
2022/06/27 04:02:16;;;;;;;10.30;8.00;;;;;;;17.27;80.90;101332.59;107475;1251;73555;-71
2022/06/27 04:05:26;;;;;;;9.70;7.20;;;;;;;17.42;81.05;101334.38;107031;1250;725470;-71
2022/06/27 04:07:55;;;;;;;12.20;7.60;;;;;;;17.54;80.40;101336.13;107776;1250;68632;-71
2022/06/27 04:10:24;;;;;;;13.00;6.90;;;;;;;17.61;80.16;101333.11;107816;1250;65557;-72
2022/06/27 04:12:54;;;;;;;12.00;7.50;;;;;;;17.73;79.94;101336.09;107667;1251;58953;-71
2022/06/27 04:15:41;;;;;;;10.10;7.90;;;;;;;17.81;79.95;101340.70;108022;1251;58437;-72
2022/06/27 04:18:39;;;;;;;10.90;7.30;;;;;;;17.95;79.55;101336.35;108046;1250;62183;-72
2022/06/27 04:21:25;;;;;;;15.30;7.40;;;;;;;18.02;79.39;101334.49;108333;1250;60673;-73
2022/06/27 04:23:59;;;;;;;13.60;7.90;;;;;;;18.06;79.35;101331.34;107602;1251;59184;-74
2022/06/27 04:26:37;;;;;;;10.00;7.10;;;;;;;18.17;79.07;101335.19;107325;1251;65176;-76
2022/06/27 04:29:07;;;;;;;9.60;7.80;;;;;;;18.24;78.87;101336.48;107339;1251;59134;-74
2022/06/27 04:31:36;;;;;;;14.10;8.60;;;;;;;18.32;78.92;101337.86;107435;1251;60500;-73
2022/06/27 04:34:06;;;;;;;11.00;7.70;;;;;;;18.37;78.61;101340.66;107385;1250;73855;-71
2022/06/27 04:36:41;;;;;;;10.40;8.10;;;;;;;18.47;78.55;101333.70;107381;1251;61476;-74
2022/06/27 04:39:13;;;;;;;10.60;7.70;;;;;;;18.58;78.24;101334.59;107381;1250;70598;-73
2022/06/27 04:41:51;;;;;;;10.80;7.80;;;;;;;18.69;78.11;101326.16;107473;1251;63752;-74
2022/06/27 04:44:21;;;;;;;10.90;7.70;;;;;;;18.79;77.80;101325.71;107686;1251;62281;-71
2022/06/27 04:46:50;;;;;;;12.90;7.80;;;;;;;18.83;78.10;101325.48;108379;1250;60434;-70
2022/06/27 04:49:44;;;;;;;11.90;7.90;;;;;;;18.98;77.93;101329.82;108286;1250;74875;-69
2022/06/27 04:52:15;;;;;;;12.00;8.30;;;;;;;19.15;77.31;101329.40;107904;1251;61283;-72
2022/06/27 04:54:44;;;;;;;9.10;7.40;;;;;;;19.31;77.06;101327.27;107728;1251;60022;-71
2022/06/27 04:57:14;;;;;;;10.00;7.50;;;;;;;19.48;76.74;101329.49;107811;1250;73176;-74
2022/06/27 04:59:42;;;;;;;8.70;6.90;;;;;;;19.66;76.42;101331.77;107676;1250;62649;-74
2022/06/27 05:02:49;;;;;;;8.40;7.50;;;;;;;19.80;75.85;101339.63;107596;1250;58407;-73
2022/06/27 05:05:19;;;;;;;10.70;7.60;;;;;;;19.95;75.16;101337.80;107573;1250;73718;-72
2022/06/27 05:07:47;;;;;;;10.00;6.80;;;;;;;20.07;74.77;101334.58;107087;1250;72714;-71
2022/06/27 05:10:17;;;;;;;8.30;6.70;;;;;;;20.21;74.01;101335.65;107496;1249;71308;-71
2022/06/27 05:12:45;;;;;;;10.10;7.10;;;;;;;20.29;73.52;101332.56;107340;1251;74633;-73
2022/06/27 05:15:14;;;;;;;11.50;7.40;;;;;;;20.31;73.56;101334.46;107304;1251;62993;-72
2022/06/27 05:17:44;;;;;;;9.90;7.30;;;;;;;20.43;73.55;101340.16;107355;1250;61293;-74
2022/06/27 05:20:13;;;;;;;10.40;6.90;;;;;;;20.51;73.12;101337.31;107315;1250;63489;-72
2022/06/27 05:22:42;;;;;;;12.30;7.20;;;;;;;20.62;72.53;101337.44;107538;1250;71646;-74
2022/06/27 05:25:12;;;;;;;7.80;6.80;;;;;;;20.69;72.33;101333.84;107445;1250;60457;-71
2022/06/27 05:27:41;;;;;;;10.60;7.10;;;;;;;20.82;72.30;101331.79;107623;1250;64715;-74
2022/06/27 05:30:13;;;;;;;9.30;7.20;;;;;;;20.94;71.76;101330.52;107392;1250;61968;-73
2022/06/27 05:32:42;;;;;;;7.70;6.90;;;;;;;21.07;71.35;101334.29;107466;1249;61021;-71
2022/06/27 05:35:12;;;;;;;7.60;6.60;;;;;;;21.16;71.00;101332.37;107440;1251;63530;-72
2022/06/27 05:37:44;;;;;;;10.50;6.70;;;;;;;21.23;70.54;101326.63;107661;1249;72224;-70
2022/06/27 05:40:14;;;;;;;9.30;6.80;;;;;;;21.36;70.22;101327.04;108213;1249;70684;-71
2022/06/27 05:42:43;;;;;;;8.60;6.60;;;;;;;21.54;69.90;101324.64;107690;1250;73110;-71
2022/06/27 05:45:12;;;;;;;9.00;6.50;;;;;;;21.66;69.54;101324.85;107424;1250;58997;-75
2022/06/27 05:48:03;;;;;;;6.10;5.30;;;;;;;21.83;68.37;101323.35;107317;1250;57463;-70
2022/06/27 05:50:36;;;;;;;7.10;6.20;;;;;;;21.91;67.85;101322.77;107178;1250;62729;-83
2022/06/27 05:53:06;;;;;;;8.50;6.30;;;;;;;21.96;67.77;101325.11;107173;1250;71551;-80
2022/06/27 05:55:35;;;;;;;10.60;6.50;;;;;;;22.07;67.15;101322.23;107152;1249;71160;-82
2022/06/27 05:58:04;;;;;;;9.10;6.40;;;;;;;22.17;66.95;101318.50;107199;1250;73303;-74
2022/06/27 06:00:33;;;;;;;8.60;6.50;;;;;;;22.26;66.85;101322.63;107218;1250;59108;-82
2022/06/27 06:03:03;;;;;;;7.60;6.00;;;;;;;22.37;66.40;101318.67;107189;1251;60472;-79
2022/06/27 06:05:33;;;;;;;7.30;5.90;;;;;;;22.45;66.22;101318.69;107245;1251;74365;-80
2022/06/27 06:08:04;;;;;;;6.70;5.70;;;;;;;22.57;65.99;101322.71;106874;1250;62150;-81
2022/06/27 06:10:33;;;;;;;9.00;5.90;;;;;;;22.66;65.56;101321.43;107185;1250;70069;-81
2022/06/27 06:13:03;;;;;;;10.20;5.60;;;;;;;22.76;65.44;101322.11;106997;1251;62863;-79
2022/06/27 06:15:36;;;;;;;7.50;5.50;;;;;;;22.85;65.09;101320.48;107401;1250;60475;-80
2022/06/27 06:18:05;;;;;;;8.10;6.00;;;;;;;22.95;64.29;101326.58;107315;1251;61064;-79
2022/06/27 06:20:35;;;;;;;9.60;6.10;;;;;;;23.03;64.49;101324.29;107184;1250;72726;-80
2022/06/27 06:23:04;;;;;;;8.90;6.00;;;;;;;23.19;64.58;101327.77;107218;1251;72759;-79
2022/06/27 06:25:33;;;;;;;6.70;5.40;;;;;;;23.33;63.67;101323.82;107281;1250;70930;-82
2022/06/27 06:28:04;;;;;;;8.80;6.10;;;;;;;23.36;63.32;101327.92;107069;1249;75229;-79
2022/06/27 06:30:34;;;;;;;8.30;6.40;;;;;;;23.36;63.73;101323.13;107385;1250;60669;-79
2022/06/27 06:33:09;;;;;;;9.00;5.60;;;;;;;23.42;63.24;101317.21;107111;1251;60344;-81
2022/06/27 06:35:38;;;;;;;8.30;5.30;;;;;;;23.49;62.97;101324.63;107364;1250;73254;-79
2022/06/27 06:38:08;;;;;;;11.00;5.70;;;;;;;23.58;62.68;101320.73;107337;1250;62182;-80
2022/06/27 06:40:37;;;;;;;8.00;5.60;;;;;;;23.71;62.66;101322.16;107260;1251;70598;-76
2022/06/27 06:43:06;;;;;;;6.70;5.60;;;;;;;23.84;62.32;101323.64;107236;1250;75541;-79
2022/06/27 06:45:37;;;;;;;10.30;5.70;;;;;;;23.95;61.95;101321.45;107509;1250;58999;-78
2022/06/27 06:48:25;;;;;;;8.90;6.20;;;;;;;24.02;61.44;101321.14;107038;1251;58979;-81
2022/06/27 06:50:54;;;;;;;8.40;6.40;;;;;;;24.10;61.10;101320.61;107282;1251;73667;-78
2022/06/27 06:53:24;;;;;;;8.80;5.90;;;;;;;24.16;61.22;101318.98;107277;1251;73630;-80
2022/06/27 06:55:54;;;;;;;7.10;5.40;;;;;;;24.26;60.44;101320.71;107359;1251;70361;-83
2022/06/27 06:58:25;;;;;;;7.40;5.20;;;;;;;24.35;60.06;101321.70;107128;1251;75369;-79
2022/06/27 07:00:56;;;;;;;8.70;5.40;;;;;;;24.50;59.60;101316.40;107088;1253;57445;-81
2022/06/27 07:03:25;;;;;;;6.20;5.60;;;;;;;24.59;59.50;101317.98;107292;1251;60411;-81
2022/06/27 07:05:56;;;;;;;7.70;5.60;;;;;;;24.71;59.02;101314.91;107188;1251;62622;-80
2022/06/27 07:08:26;;;;;;;5.70;4.40;;;;;;;24.85;58.38;101306.46;107464;1250;61686;-80
2022/06/27 07:10:57;;;;;;;6.00;5.20;;;;;;;24.98;57.74;101307.96;107510;1250;59395;-86
2022/06/27 07:13:26;;;;;;;8.00;5.00;;;;;;;25.04;57.31;101306.97;107387;1250;73892;-83
2022/06/27 07:15:55;;;;;;;8.50;4.90;;;;;;;25.10;57.06;101310.67;107326;1250;58699;-79
2022/06/27 07:18:25;;;;;;;10.10;4.60;;;;;;;25.23;56.79;101305.65;107220;1250;58857;-82
2022/06/27 07:20:54;;;;;;;11.10;4.50;;;;;;;25.34;55.44;101310.77;107559;1250;62154;-82
2022/06/27 07:23:23;;;;;;;5.90;4.30;;;;;;;25.43;55.11;101309.45;107376;1251;71541;-80
2022/06/27 07:25:52;;;;;;;9.00;4.60;;;;;;;25.46;53.78;101313.01;107449;1251;59564;-81
2022/06/27 07:28:22;;;;;;;7.10;4.60;;;;;;;25.60;54.11;101307.64;107439;1250;63230;-80
2022/06/27 07:30:51;;;;;;;6.10;4.40;;;;;;;25.74;54.04;101305.73;107384;1250;59884;-86
2022/06/27 07:33:20;;;;;;;6.60;3.70;;;;;;;25.89;53.42;101305.96;107273;1249;61210;-79
2022/06/27 07:35:50;;;;;;;5.70;4.30;;;;;;;26.02;51.75;101308.34;107432;1250;63570;-81
2022/06/27 07:38:21;;;;;;;7.30;4.50;;;;;;;26.07;52.08;101309.52;107394;1250;61640;-79
2022/06/27 07:40:50;;;;;;;9.10;4.70;;;;;;;26.15;52.27;101312.57;107374;1251;70565;-81
2022/06/27 07:43:20;;;;;;;8.90;4.80;;;;;;;26.32;51.72;101305.63;107202;1250;73624;-78
2022/06/27 07:45:48;;;;;;;6.00;3.90;;;;;;;26.40;51.62;101302.41;107373;1250;59537;-81
2022/06/27 07:48:20;;;;;;;6.20;4.40;;;;;;;26.52;51.36;101299.88;107423;1250;59007;-79
2022/06/27 07:50:49;;;;;;;7.10;4.60;;;;;;;26.57;50.55;101294.56;107223;1251;62279;-81
2022/06/27 07:53:20;;;;;;;6.40;3.70;;;;;;;26.75;50.05;101295.45;107374;1251;61641;-83
2022/06/27 07:55:58;;;;;;;5.70;3.50;;;;;;;26.91;49.27;101293.00;107446;1249;70705;-78
2022/06/27 07:58:33;;;;;;;9.20;3.50;;;;;;;26.91;47.86;101294.98;107583;1250;74388;-77
2022/06/27 08:01:07;;;;;;;4.60;3.60;;;;;;;26.91;46.85;101290.98;107616;1250;57556;-76
2022/06/27 08:03:40;;;;;;;3.60;2.90;;;;;;;27.18;45.60;101288.17;107828;1250;60518;-77
2022/06/27 08:06:20;;;;;;;9.60;3.60;;;;;;;27.39;44.86;101285.27;109376;1249;73227;-76
2022/06/27 08:08:57;;;;;;;4.10;3.00;;;;;;;27.53;44.24;101282.63;108623;1250;61252;-79
2022/06/27 08:11:30;;;;;;;5.90;3.40;;;;;;;27.60;43.68;101290.17;107655;1250;60342;-78
2022/06/27 08:14:03;;;;;;;5.90;3.50;;;;;;;27.67;43.76;101288.76;107581;1248;73921;-78
2022/06/27 08:16:35;;;;;;;4.10;3.10;;;;;;;27.77;43.45;101286.40;107943;1251;61672;-80
2022/06/27 08:19:04;;;;;;;;;;;;;;;27.76;43.51;101282.61;107858;1250;59033;-78
2022/06/27 08:21:35;;;;;;;4.20;3.20;;;;;;;27.92;43.74;101286.40;107765;1250;62212;-78
2022/06/27 08:24:11;;;;;;;4.50;3.40;;;;;;;28.00;43.83;101290.17;107703;1249;73211;-81
2022/06/27 08:26:41;;;;;;;5.30;3.60;;;;;;;27.67;43.54;101283.30;107411;1250;60539;-81
2022/06/27 08:29:10;;;;;;;3.80;3.30;;;;;;;27.74;43.93;101284.79;107453;1250;64335;-75
2022/06/27 08:31:41;;;;;;;10.30;3.90;;;;;;;27.99;43.97;101279.93;107459;1250;58857;-79
2022/06/27 08:34:12;;;;;;;6.10;3.70;;;;;;;28.27;42.95;101280.17;107492;1249;59076;-78
2022/06/27 08:36:42;;;;;;;6.30;3.60;;;;;;;28.38;43.20;101278.22;107419;1250;72789;-76
2022/06/27 08:39:16;;;;;;;5.00;3.60;;;;;;;28.43;43.34;101275.80;107368;1250;72609;-76
2022/06/27 08:41:47;;;;;;;6.40;3.80;;;;;;;28.63;43.32;101276.52;107378;1250;59634;-77
2022/06/27 08:44:16;;;;;;;4.50;3.50;;;;;;;28.74;42.67;101280.38;107309;1250;73026;-78
2022/06/27 08:46:46;;;;;;;6.20;3.80;;;;;;;28.88;42.06;101280.28;107308;1250;59060;-82
2022/06/27 08:49:16;;;;;;;4.80;3.70;;;;;;;28.84;41.67;101276.55;107460;1250;58723;-78
2022/06/27 08:51:45;;;;;;;5.30;3.30;;;;;;;28.80;41.64;101275.52;107482;1250;62061;-76
2022/06/27 08:54:14;;;;;;;7.20;3.50;;;;;;;28.88;41.48;101272.92;107423;1249;63592;-77
2022/06/27 08:56:43;;;;;;;5.00;3.20;;;;;;;28.91;41.32;101268.23;107318;1251;70937;-81
2022/06/27 08:59:12;;;;;;;8.50;3.40;;;;;;;28.88;41.06;101263.20;107306;1250;63657;-80
2022/06/27 09:01:48;;;;;;;4.70;3.30;;;;;;;29.04;41.66;101267.15;107192;1250;61333;-76
2022/06/27 09:04:17;;;;;;;4.20;3.40;;;;;;;28.79;41.52;101259.86;107561;1249;57464;-79
2022/06/27 09:06:47;;;;;;;5.30;3.40;;;;;;;29.01;41.38;101264.07;107428;1251;63082;-81
2022/06/27 09:09:15;;;;;;;5.40;3.70;;;;;;;29.32;41.36;101265.02;107288;1250;72206;-82
2022/06/27 09:11:49;;;;;;;5.50;3.60;;;;;;;29.51;40.73;101264.66;107451;1250;60600;-80
2022/06/27 09:14:40;;;;;;;4.50;3.80;;;;;;;29.71;40.18;101262.32;107282;1250;73931;-79
2022/06/27 09:17:15;;;;;;;6.10;3.40;;;;;;;29.41;40.01;101267.76;107217;1251;60893;-83
2022/06/27 09:19:56;;;;;;;5.20;3.60;;;;;;;29.43;39.81;101264.19;107539;1250;58984;-79
2022/06/27 09:22:30;;;;;;;3.90;3.00;;;;;;;29.54;39.98;101257.36;107503;1250;73003;-82
2022/06/27 09:25:23;;;;;;;5.50;3.20;;;;;;;29.55;39.83;101252.08;107473;1250;61251;-81
2022/06/27 09:27:53;;;;;;;4.50;3.20;;;;;;;29.85;39.36;101246.01;107506;1251;69815;-79
2022/06/27 09:30:24;;;;;;;4.30;3.00;;;;;;;30.08;38.77;101237.64;107737;1250;63117;-81
2022/06/27 09:32:59;;;;;;;8.20;2.90;;;;;;;30.17;38.10;101241.89;107470;1250;60459;-81
2022/06/27 09:35:36;;;;;;;4.40;3.00;;;;;;;30.63;37.28;101237.79;107556;1250;59166;-81
2022/06/27 09:38:09;;;;;;;4.00;3.00;;;;;;;30.74;35.83;101237.19;107639;1250;71753;-80
2022/06/27 09:40:40;;;;;;;8.00;3.00;;;;;;;30.79;35.07;101234.42;107575;1250;62078;-82
2022/06/27 09:43:16;;;;;;;3.50;2.70;;;;;;;31.21;34.47;101231.23;107525;1250;69904;-79
2022/06/27 09:45:48;;;;;;;4.50;2.70;;;;;;;31.21;33.71;101224.67;107457;1250;65208;-78
2022/06/27 09:48:18;;;;;;;3.30;2.60;;;;;;;31.04;33.92;101216.46;107533;1250;60421;-81
2022/06/27 09:50:49;;;;;;;4.20;2.80;;;;;;;31.34;34.43;101211.67;107325;1250;60992;-79
2022/06/27 09:53:25;;;;;;;;;;;;;;;31.60;33.63;101216.77;107158;1250;76941;-77
2022/06/27 09:55:55;;;;;;;3.40;2.40;;;;;;;31.55;33.81;101217.41;107269;1250;72896;-79
2022/06/27 09:58:26;;;;;;;6.50;2.80;;;;;;;31.00;34.40;101219.02;107314;1250;70945;-83
2022/06/27 10:01:15;;;;;;;4.30;2.50;;;;;;;31.19;34.55;101219.02;107413;1249;75594;-76
2022/06/27 10:03:45;;;;;;;4.00;2.90;;;;;;;31.23;34.55;101214.27;107478;1250;61671;-77
2022/06/27 10:06:16;;;;;;;5.30;3.10;;;;;;;31.18;34.46;101204.17;107461;1250;61316;-79
2022/06/27 10:08:48;;;;;;;4.30;2.90;;;;;;;31.23;34.07;101205.48;107444;1250;74114;-82
2022/06/27 10:11:24;;;;;;;6.30;3.00;;;;;;;31.57;33.96;101206.86;107187;1250;63961;-83
2022/06/27 10:14:26;;;;;;;6.30;2.60;;;;;;;31.72;33.42;101203.79;107487;1250;70535;-80
2022/06/27 10:17:00;;;;;;;4.00;2.70;;;;;;;31.13;33.99;101201.61;107478;1250;74749;-78
2022/06/27 10:19:31;;;;;;;3.60;2.50;;;;;;;30.94;34.50;101204.05;107379;1250;59538;-81
2022/06/27 10:22:00;;;;;;;3.40;2.60;;;;;;;30.66;34.98;101204.27;107322;1250;61963;-77
2022/06/27 10:24:32;;;;;;;4.60;2.70;;;;;;;30.74;35.17;101203.14;107609;1248;73978;-80
2022/06/27 10:27:04;;;;;;;4.20;2.60;;;;;;;30.92;35.12;101202.86;107525;1250;71619;-80
2022/06/27 10:29:45;;;;;;;6.00;2.60;;;;;;;31.00;35.01;101203.76;107161;1250;60890;-80
2022/06/27 10:32:46;;;;;;;4.30;2.50;;;;;;;30.68;35.20;101202.14;107331;1250;73104;-81
2022/06/27 10:35:16;;;;;;;4.40;2.90;;;;;;;30.58;35.18;101202.50;107531;1250;61611;-80
2022/06/27 10:37:46;;;;;;;4.10;2.70;;;;;;;30.79;34.99;101199.25;107160;1250;61943;-80
2022/06/27 10:40:43;;;;;;;3.50;2.60;;;;;;;30.57;35.08;101200.63;107412;1250;65366;-85
2022/06/27 10:43:49;;;;;;;7.00;2.70;;;;;;;30.33;35.42;101197.73;107536;1250;61592;-75
2022/06/27 10:46:21;;;;;;;7.20;2.90;;;;;;;30.08;35.70;101198.52;107204;1250;68829;-83
2022/06/27 10:48:56;;;;;;;3.90;2.70;;;;;;;29.99;35.85;101195.35;107585;1250;62861;-83
2022/06/27 10:51:28;;;;;;;6.70;2.70;;;;;;;29.99;36.18;101193.80;107321;1250;59652;-82
2022/06/27 10:54:06;;;;;;;;;;;;;;;30.05;36.32;101197.56;107475;1250;57990;-84
2022/06/27 10:56:55;;;;;;;7.00;3.10;;;;;;;29.90;36.18;101200.16;107498;1250;63046;-81
2022/06/27 10:59:55;;;;;;;5.80;3.60;;;;;;;29.76;35.60;101197.85;107281;1251;72277;-83
2022/06/27 11:02:28;;;;;;;3.20;2.50;;;;;;;29.75;35.73;101197.49;107253;1250;70312;-82
2022/06/27 11:04:57;;;;;;;3.70;2.50;;;;;;;29.77;36.15;101195.65;107166;1252;74867;-76
2022/06/27 11:07:28;;;;;;;5.00;3.20;;;;;;;29.75;36.23;101195.30;106995;1250;59612;-82
2022/06/27 11:09:57;;;;;;;6.30;3.00;;;;;;;29.65;36.21;101191.08;107085;1250;61445;-83
2022/06/27 11:12:34;;;;;;;4.00;2.70;;;;;;;29.85;36.15;101189.46;107299;1251;74334;-79
2022/06/27 11:15:05;;;;;;;5.20;3.20;;;;;;;29.98;35.92;101185.52;107229;1250;72127;-80
2022/06/27 11:17:40;;;;;;;4.50;2.70;;;;;;;30.12;35.76;101185.73;107743;1250;59495;-77
2022/06/27 11:20:25;;;;;;;6.60;3.00;;;;;;;30.07;35.25;101185.08;107603;1251;62505;-79
2022/06/27 11:23:10;;;;;;;8.10;2.40;;;;;;;30.23;35.20;101185.90;108670;1250;59011;-79
2022/06/27 11:25:47;;;;;;;3.40;2.50;;;;;;;30.45;34.87;101181.02;109082;1251;57792;-81
2022/06/27 11:33:54;;;;;;;3.80;2.60;;;;;;;30.75;34.41;101172.31;107682;1250;68222;-79
2022/06/27 11:36:25;;;;;;;6.30;2.90;;;;;;;30.80;34.08;101170.65;107438;1251;62504;-80
2022/06/27 11:38:55;;;;;;;9.30;6.00;;;;;;;30.90;33.60;101167.27;107593;1250;61815;-82
2022/06/27 11:41:30;;;;;;;3.00;2.30;;;;;;;31.08;33.35;101166.91;107744;1251;59504;-84
2022/06/27 11:44:12;;;;;;;3.40;2.40;;;;;;;31.34;32.92;101173.18;107707;1250;63858;-81
2022/06/27 11:46:46;;;;;;;4.10;2.40;;;;;;;31.53;32.59;101169.19;107618;1250;62099;-80
2022/06/27 11:49:27;;;;;;;9.60;3.30;;;;;;;31.93;31.80;101165.88;107407;1250;59613;-80
2022/06/27 11:52:04;;;;;;;6.20;2.60;;;;;;;32.21;31.78;101160.81;107317;1250;73732;-80
2022/06/27 11:54:43;;;;;;;6.60;2.60;;;;;;;32.82;30.95;101163.25;107287;1250;59598;-80